Time;durP1;ratioP1;P1;durP2;ratioP2;P2;SDS_P1;SDS_P2;PMS_P1;PMS_P2;Temp;Humidity;BMP_temperature;BMP_pressure;BME280_temperature;BME280_humidity;BME280_pressure;Samples;Min_cycle;Max_cycle;Signal;HPM_P1;HPM_P2
2021/10/04 00:05:51;;;;;;;1.77;0.80;;;13.60;58.70;;;;;;20801694;28;80643;-67
2021/10/04 00:15:54;;;;;;;3.13;0.40;;;13.50;59.20;;;;;;20801135;27;80767;-70
2021/10/04 00:25:56;;;;;;;1.90;0.52;;;13.40;59.50;;;;;;20799839;27;80745;-69
2021/10/04 00:35:58;;;;;;;2.70;0.60;;;13.30;60.40;;;;;;20800233;28;80935;-70
2021/10/04 00:46:00;;;;;;;1.45;0.50;;;13.20;59.50;;;;;;20807765;28;80704;-67
2021/10/04 00:56:03;;;;;;;3.77;0.70;;;13.20;60.00;;;;;;20815096;28;80728;-69
2021/10/04 01:06:05;;;;;;;1.63;0.55;;;13.00;60.60;;;;;;20812428;28;81964;-67
2021/10/04 01:16:08;;;;;;;7.63;1.33;;;12.90;61.50;;;;;;20812980;28;79939;-72
2021/10/04 01:26:12;;;;;;;3.67;1.50;;;12.80;62.30;;;;;;20811827;28;80788;-68
2021/10/04 01:36:16;;;;;;;2.28;0.70;;;12.60;63.30;;;;;;20812350;28;81809;-72
2021/10/04 01:46:20;;;;;;;2.25;0.80;;;12.60;63.80;;;;;;20810369;28;80759;-72
2021/10/04 01:56:27;;;;;;;2.97;0.60;;;12.60;64.10;;;;;;20809032;28;80470;-71
2021/10/04 02:06:35;;;;;;;2.30;0.60;;;12.50;64.40;;;;;;20809222;28;81180;-72
2021/10/04 02:16:40;;;;;;;14.18;3.88;;;12.50;64.80;;;;;;20808603;28;80419;-73
2021/10/04 02:27:02;;;;;;;4.85;1.73;;;12.40;65.40;;;;;;20808922;28;81921;-73
2021/10/04 02:37:24;;;;;;;4.47;1.13;;;12.40;65.80;;;;;;20808547;28;81326;-70
2021/10/04 02:47:47;;;;;;;5.10;1.42;;;12.40;66.00;;;;;;20806625;28;80225;-68
2021/10/04 02:58:02;;;;;;;2.60;0.73;;;12.40;66.10;;;;;;20806309;28;80750;-67
2021/10/04 03:08:11;;;;;;;3.25;1.00;;;12.40;66.00;;;;;;20803939;28;80744;-67
2021/10/04 03:18:18;;;;;;;4.65;1.20;;;12.40;65.50;;;;;;20803762;28;81845;-68
2021/10/04 03:28:26;;;;;;;17.45;3.78;;;12.30;66.00;;;;;;20804851;28;80750;-68
2021/10/04 03:38:47;;;;;;;9.18;2.92;;;12.20;66.50;;;;;;20802491;28;80446;-68
2021/10/04 03:49:08;;;;;;;2.53;0.60;;;12.30;68.90;;;;;;20803018;28;79939;-71
2021/10/04 03:59:30;;;;;;;5.00;1.48;;;12.40;69.70;;;;;;20801621;27;80364;-73
2021/10/04 04:09:50;;;;;;;2.28;0.57;;;12.40;69.20;;;;;;20777351;28;80706;-75
2021/10/04 04:20:08;;;;;;;4.10;1.10;;;12.30;68.20;;;;;;20729342;28;80901;-71
2021/10/04 04:30:28;;;;;;;3.88;1.85;;;12.20;67.10;;;;;;20788161;28;80907;-75
2021/10/04 04:40:39;;;;;;;5.45;1.83;;;12.10;67.30;;;;;;20800759;27;80838;-75
2021/10/04 04:50:59;;;;;;;4.30;1.50;;;12.00;68.10;;;;;;20800436;28;80712;-75
2021/10/04 05:01:09;;;;;;;8.63;1.95;;;12.10;68.40;;;;;;20799298;27;80730;-73
2021/10/04 05:11:22;;;;;;;5.60;1.30;;;12.00;68.70;;;;;;20797338;28;80719;-76
2021/10/04 05:21:32;;;;;;;4.60;1.30;;;12.10;69.00;;;;;;20797358;28;81898;-75
2021/10/04 05:31:38;;;;;;;4.32;1.17;;;12.10;68.40;;;;;;20732811;28;80724;-77
2021/10/04 05:41:46;;;;;;;5.30;1.92;;;12.00;68.30;;;;;;20704226;28;81850;-69
2021/10/04 05:51:51;;;;;;;5.03;1.25;;;12.10;68.10;;;;;;20697378;28;81123;-70
2021/10/04 06:01:57;;;;;;;3.65;0.98;;;12.10;68.00;;;;;;20709761;28;80921;-69
2021/10/04 06:12:24;;;;;;;3.85;1.10;;;12.00;67.90;;;;;;20718638;28;82436;-68
2021/10/04 06:22:30;;;;;;;3.50;0.85;;;11.90;67.80;;;;;;20719695;28;81532;-66
2021/10/04 06:32:51;;;;;;;4.65;1.20;;;11.80;67.80;;;;;;20717038;28;80347;-65
2021/10/04 06:42:53;;;;;;;5.90;1.30;;;11.80;67.80;;;;;;20708526;28;80988;-62
2021/10/04 06:52:57;;;;;;;3.97;0.70;;;12.00;67.00;;;;;;20711561;28;81373;-65
2021/10/04 07:03:04;;;;;;;3.00;0.93;;;12.30;65.90;;;;;;20708005;28;81644;-66
2021/10/04 07:13:07;;;;;;;6.25;1.10;;;12.40;65.40;;;;;;20705342;28;81858;-64
2021/10/04 07:23:09;;;;;;;4.78;1.27;;;12.90;63.90;;;;;;20708079;28;81784;-64
2021/10/04 07:33:12;;;;;;;3.60;1.20;;;13.10;63.10;;;;;;20710077;28;81222;-61
2021/10/04 07:43:14;;;;;;;5.70;0.95;;;12.90;62.50;;;;;;20707700;28;82581;-65
2021/10/04 07:53:16;;;;;;;2.63;0.85;;;12.60;62.00;;;;;;20708383;28;81659;-61
2021/10/04 08:03:19;;;;;;;3.20;0.80;;;13.00;61.40;;;;;;20708451;28;81954;-63
2021/10/04 08:13:21;;;;;;;4.38;1.02;;;14.60;56.90;;;;;;20703966;28;81873;-63
2021/10/04 08:23:23;;;;;;;3.30;1.10;;;14.80;55.40;;;;;;20707185;28;81642;-65
2021/10/04 08:33:25;;;;;;;8.23;0.70;;;14.20;56.90;;;;;;20706179;28;81171;-62
2021/10/04 08:43:27;;;;;;;2.17;0.38;;;14.90;54.50;;;;;;20702640;28;81723;-63
2021/10/04 08:53:29;;;;;;;4.35;0.75;;;15.50;52.20;;;;;;20716522;28;81228;-62
2021/10/04 09:03:58;;;;;;;3.80;0.75;;;15.40;52.70;;;;;;20706625;28;81820;-64
2021/10/04 09:14:16;;;;;;;7.05;1.30;;;15.90;53.00;;;;;;20722816;28;81846;-67
2021/10/04 09:24:18;;;;;;;4.75;0.60;;;17.30;49.70;;;;;;20718505;28;80994;-61
2021/10/04 09:34:27;;;;;;;2.45;0.63;;;17.20;50.70;;;;;;20714605;28;80848;-68
2021/10/04 09:44:54;;;;;;;9.52;1.20;;;19.40;45.70;;;;;;20709097;28;81351;-65
2021/10/04 09:54:56;;;;;;;4.38;0.40;;;21.90;40.20;;;;;;20713757;28;81401;-67
2021/10/04 10:04:58;;;;;;;2.47;0.40;;;20.90;41.00;;;;;;20715112;28;81742;-68
2021/10/04 10:15:02;;;;;;;6.83;1.07;;;21.30;40.20;;;;;;20713477;28;81841;-69
2021/10/04 10:25:28;;;;;;;3.83;1.27;;;23.40;36.20;;;;;;20715760;28;81079;-61
2021/10/04 10:35:48;;;;;;;3.85;0.35;;;24.40;34.70;;;;;;20710654;28;80810;-69
2021/10/04 10:45:52;;;;;;;2.35;1.10;;;28.20;29.80;;;;;;20714123;28;81874;-67
2021/10/04 10:55:58;;;;;;;2.17;0.90;;;25.20;31.80;;;;;;20713908;28;81510;-64
2021/10/04 11:06:08;;;;;;;2.63;0.82;;;23.30;34.00;;;;;;20712700;28;81454;-66
2021/10/04 11:16:10;;;;;;;1.92;0.63;;;22.20;36.20;;;;;;20711652;28;81095;-70
2021/10/04 11:26:14;;;;;;;0.70;0.20;;;22.20;36.00;;;;;;20709965;28;81840;-70
2021/10/04 11:36:17;;;;;;;4.07;0.55;;;23.50;33.60;;;;;;20710251;28;81606;-62
2021/10/04 11:46:23;;;;;;;3.38;0.32;;;24.40;30.90;;;;;;20706668;28;80796;-66
2021/10/04 11:56:25;;;;;;;2.50;0.60;;;26.20;29.00;;;;;;20707722;28;80990;-66
2021/10/04 12:06:29;;;;;;;2.58;0.47;;;26.80;28.40;;;;;;20707217;28;81112;-66
2021/10/04 12:16:33;;;;;;;1.45;0.50;;;27.30;27.10;;;;;;20705040;28;80848;-64
2021/10/04 12:27:09;;;;;;;4.70;0.35;;;25.70;28.90;;;;;;20705938;28;81853;-62
2021/10/04 12:37:21;;;;;;;2.47;0.40;;;26.20;29.10;;;;;;20704478;28;81452;-64
2021/10/04 12:47:26;;;;;;;2.72;0.20;;;25.40;29.60;;;;;;20707241;28;82246;-61
2021/10/04 12:57:32;;;;;;;1.30;0.20;;;27.00;27.10;;;;;;20707209;28;82523;-62
2021/10/04 13:07:35;;;;;;;3.00;0.45;;;29.50;24.80;;;;;;20659453;28;80535;-64
2021/10/04 13:17:38;;;;;;;0.77;0.20;;;29.40;24.80;;;;;;20633738;28;81080;-65
2021/10/04 13:27:40;;;;;;;1.48;0.40;;;27.90;26.60;;;;;;20664428;28;81901;-67
2021/10/04 13:37:42;;;;;;;2.75;0.30;;;27.10;27.10;;;;;;20632417;28;81792;-63
2021/10/04 13:48:04;;;;;;;3.23;0.33;;;28.20;25.90;;;;;;20633594;28;80163;-61
2021/10/04 13:58:07;;;;;;;2.63;0.25;;;27.10;27.20;;;;;;20644948;28;80735;-63
2021/10/04 14:08:13;;;;;;;2.55;0.55;;;27.50;26.20;;;;;;20644232;28;81772;-65
2021/10/04 14:18:21;;;;;;;1.35;0.30;;;32.40;21.10;;;;;;20644356;28;80580;-63
2021/10/04 14:28:26;;;;;;;0.98;0.30;;;38.40;16.00;;;;;;20673519;28;80668;-64
2021/10/04 14:38:31;;;;;;;1.25;0.60;;;32.60;19.80;;;;;;20641382;28;79865;-62
2021/10/04 14:48:35;;;;;;;1.30;0.30;;;29.00;22.20;;;;;;20637534;28;82034;-64
2021/10/04 14:58:38;;;;;;;8.80;0.95;;;28.20;22.80;;;;;;20670692;28;81743;-64
2021/10/04 15:08:41;;;;;;;1.42;0.20;;;27.30;23.50;;;;;;20637988;28;81775;-63
2021/10/04 15:18:44;;;;;;;1.08;0.30;;;29.30;19.80;;;;;;20638954;28;81814;-60
2021/10/04 15:28:45;;;;;;;4.57;0.30;;;28.20;20.50;;;;;;20639083;28;81816;-63
2021/10/04 15:38:50;;;;;;;1.40;0.32;;;26.70;21.90;;;;;;20634984;28;81932;-61
2021/10/04 15:48:53;;;;;;;3.47;0.30;;;27.10;21.40;;;;;;20635943;28;80769;-63
2021/10/04 15:59:16;;;;;;;2.60;0.40;;;28.50;21.00;;;;;;20661073;28;80115;-63
2021/10/04 16:09:20;;;;;;;2.47;0.25;;;26.80;21.90;;;;;;20635110;28;81198;-61
2021/10/04 16:19:24;;;;;;;1.50;0.30;;;24.70;23.60;;;;;;20664487;28;80725;-61
2021/10/04 16:29:29;;;;;;;0.88;0.13;;;24.60;23.40;;;;;;20635410;28;80756;-61
2021/10/04 16:39:34;;;;;;;0.80;0.13;;;22.90;24.90;;;;;;20634938;28;80751;-63
2021/10/04 16:49:37;;;;;;;1.45;0.20;;;22.00;26.60;;;;;;20749182;28;80373;-64
2021/10/04 16:59:39;;;;;;;1.75;0.28;;;21.50;28.50;;;;;;20798420;28;80676;-65
2021/10/04 17:09:41;;;;;;;1.58;0.43;;;21.20;29.40;;;;;;20797854;28;80748;-66
2021/10/04 17:19:45;;;;;;;1.40;0.30;;;20.80;30.80;;;;;;20722464;28;80818;-66
2021/10/04 17:29:48;;;;;;;2.25;0.25;;;20.50;32.00;;;;;;20791352;28;80796;-68
2021/10/04 17:39:53;;;;;;;3.15;0.38;;;20.20;33.10;;;;;;20808042;28;80781;-68
2021/10/04 17:49:55;;;;;;;3.42;0.50;;;19.80;34.20;;;;;;20808174;28;80768;-69
2021/10/04 17:59:58;;;;;;;2.65;0.20;;;19.40;35.50;;;;;;20807705;28;80823;-70
2021/10/04 18:10:00;;;;;;;2.25;0.60;;;19.10;36.90;;;;;;20807400;28;81933;-68
2021/10/04 18:20:03;;;;;;;3.10;0.60;;;18.90;37.60;;;;;;20805405;28;80435;-69
2021/10/04 18:30:07;;;;;;;2.17;0.45;;;18.70;38.10;;;;;;20806620;28;81792;-69
2021/10/04 18:40:15;;;;;;;2.35;0.77;;;18.40;38.80;;;;;;20775885;28;81018;-68
2021/10/04 18:50:23;;;;;;;6.05;0.40;;;18.20;39.60;;;;;;20800523;28;80745;-69
2021/10/04 19:00:28;;;;;;;1.73;0.60;;;18.00;40.10;;;;;;20803909;28;80892;-68
2021/10/04 19:10:32;;;;;;;4.38;0.68;;;17.90;40.70;;;;;;20799027;28;81228;-70
2021/10/04 19:20:35;;;;;;;2.63;0.60;;;17.70;41.30;;;;;;20720745;28;80739;-68
2021/10/04 19:30:37;;;;;;;3.33;0.60;;;17.60;42.30;;;;;;20739041;28;80056;-69
2021/10/04 19:40:39;;;;;;;2.57;0.70;;;17.50;42.40;;;;;;20718976;28;81837;-69
2021/10/04 19:50:41;;;;;;;2.08;0.50;;;17.40;42.70;;;;;;20721061;28;80969;-69
2021/10/04 20:00:43;;;;;;;1.75;0.68;;;17.40;42.90;;;;;;20763434;28;81219;-69
2021/10/04 20:10:45;;;;;;;2.75;0.90;;;17.20;43.30;;;;;;20765643;28;80031;-69
2021/10/04 20:20:50;;;;;;;4.67;1.03;;;17.00;43.80;;;;;;20771255;28;80583;-68
2021/10/04 20:30:52;;;;;;;4.35;1.23;;;17.00;44.10;;;;;;20656027;28;80950;-67
2021/10/04 20:40:54;;;;;;;2.70;1.17;;;16.90;45.80;;;;;;20666753;28;80799;-69
2021/10/04 20:50:56;;;;;;;4.22;0.80;;;16.50;46.40;;;;;;20634436;28;81794;-69
2021/10/04 21:00:58;;;;;;;3.45;0.80;;;16.50;47.20;;;;;;20772414;28;81073;-68
2021/10/04 21:11:00;;;;;;;2.70;1.30;;;16.50;47.70;;;;;;20813404;28;80044;-69
2021/10/04 21:21:03;;;;;;;3.97;1.40;;;16.30;48.60;;;;;;20811651;28;81795;-68
2021/10/04 21:31:05;;;;;;;3.90;1.25;;;16.20;49.30;;;;;;20797978;28;82130;-69
2021/10/04 21:41:07;;;;;;;3.17;0.88;;;16.10;49.70;;;;;;20811715;28;80714;-68
2021/10/04 21:51:09;;;;;;;1.63;0.70;;;16.00;50.10;;;;;;20798286;28;80686;-68
2021/10/04 22:11:13;;;;;;;2.15;0.50;;;16.00;50.90;;;;;;20809660;28;80119;-67
2021/10/04 22:21:15;;;;;;;3.38;0.57;;;16.00;51.20;;;;;;20808618;27;80731;-69
2021/10/04 22:31:16;;;;;;;1.30;0.40;;;16.00;51.80;;;;;;20807648;28;81857;-70
2021/10/04 22:41:19;;;;;;;4.40;1.08;;;15.90;52.50;;;;;;20806875;28;80055;-69
2021/10/04 22:51:21;;;;;;;5.37;2.00;;;15.60;53.50;;;;;;20806637;28;80718;-69
2021/10/04 23:01:22;;;;;;;2.63;0.73;;;15.50;54.20;;;;;;20805623;28;80775;-71
2021/10/04 23:11:27;;;;;;;3.55;0.90;;;15.40;54.60;;;;;;20804992;28;81790;-70
2021/10/04 23:21:28;;;;;;;;;;;15.30;54.80;;;;;;20781287;28;80417;-71
2021/10/04 23:31:30;;;;;;;2.95;1.05;;;15.20;55.00;;;;;;20754966;28;81016;-70
2021/10/04 23:41:33;;;;;;;7.68;3.42;;;15.10;56.00;;;;;;20720994;28;79848;-70
2021/10/04 23:51:35;;;;;;;3.27;0.87;;;15.10;56.10;;;;;;20718769;28;81065;-68
